TimeEST,TemperatureF,Dew PointF,Humidity,Sea Level PressureIn,VisibilityMPH,Wind Direction,Wind SpeedMPH,Gust SpeedMPH,PrecipitationIn,Events,Conditions,WindDirDegrees,DateUTC
12:15 AM,39.2,37.4,93,30.19,10.0,Calm,Calm,-,N/A,,Clear,0,2012-11-23 05:15:00
12:35 AM,39.2,37.4,93,30.19,10.0,Calm,Calm,-,N/A,,Clear,0,2012-11-23 05:35:00
12:55 AM,37.4,37.4,100,30.19,10.0,Calm,Calm,-,N/A,,Clear,0,2012-11-23 05:55:00
1:15 AM,37.4,35.6,93,30.19,10.0,Calm,Calm,-,N/A,,Clear,0,2012-11-23 06:15:00
1:55 AM,37.4,35.6,93,30.18,10.0,Calm,Calm,-,N/A,,Clear,0,2012-11-23 06:55:00
2:35 AM,35.6,35.6,100,30.18,10.0,Calm,Calm,-,N/A,,Clear,0,2012-11-23 07:35:00
2:55 AM,35.6,35.6,100,30.19,10.0,Calm,Calm,-,N/A,,Clear,0,2012-11-23 07:55:00
3:15 AM,35.6,33.8,93,30.19,10.0,Calm,Calm,-,N/A,,Clear,0,2012-11-23 08:15:00
3:35 AM,35.6,33.8,93,30.18,10.0,Calm,Calm,-,N/A,,Clear,0,2012-11-23 08:35:00
3:55 AM,35.6,33.8,93,30.18,10.0,Calm,Calm,-,N/A,,Clear,0,2012-11-23 08:55:00
4:15 AM,33.8,33.8,100,30.17,10.0,Calm,Calm,-,N/A,,Clear,0,2012-11-23 09:15:00
4:35 AM,33.8,33.8,100,30.17,10.0,Calm,Calm,-,N/A,,Clear,0,2012-11-23 09:35:00
4:55 AM,33.8,33.8,100,30.17,10.0,Calm,Calm,-,N/A,,Clear,0,2012-11-23 09:55:00
5:15 AM,35.6,33.8,93,30.18,10.0,Calm,Calm,-,N/A,,Clear,0,2012-11-23 10:15:00
5:35 AM,33.8,33.8,100,30.19,10.0,Calm,Calm,-,N/A,,Clear,0,2012-11-23 10:35:00
5:55 AM,33.8,33.8,100,30.19,10.0,Calm,Calm,-,N/A,,Clear,0,2012-11-23 10:55:00
6:15 AM,33.8,32.0,93,30.20,10.0,Calm,Calm,-,N/A,,Clear,0,2012-11-23 11:15:00
6:35 AM,33.8,32.0,93,30.20,10.0,Calm,Calm,-,N/A,,Clear,0,2012-11-23 11:35:00
6:55 AM,32.0,32.0,100,30.22,10.0,Calm,Calm,-,N/A,,Clear,0,2012-11-23 11:55:00
7:15 AM,33.8,32.0,93,30.22,10.0,Calm,Calm,-,N/A,,Clear,0,2012-11-23 12:15:00
7:35 AM,33.8,32.0,93,30.22,10.0,Calm,Calm,-,N/A,,Clear,0,2012-11-23 12:35:00
7:55 AM,35.6,33.8,93,30.22,10.0,Calm,Calm,-,N/A,,Clear,0,2012-11-23 12:55:00
8:15 AM,41.0,37.4,87,30.23,10.0,Calm,Calm,-,N/A,,Clear,0,2012-11-23 13:15:00
8:35 AM,44.6,39.2,81,30.23,10.0,Calm,Calm,-,N/A,,Clear,0,2012-11-23 13:35:00
8:55 AM,50.0,41.0,71,30.24,10.0,Calm,Calm,-,N/A,,Clear,0,2012-11-23 13:55:00
9:15 AM,53.6,41.0,62,30.24,10.0,Calm,Calm,-,N/A,,Clear,0,2012-11-23 14:15:00
9:35 AM,57.2,39.2,51,30.24,10.0,Calm,Calm,-,N/A,,Clear,0,2012-11-23 14:35:00
9:55 AM,60.8,37.4,42,30.24,10.0,Calm,Calm,-,N/A,,Clear,0,2012-11-23 14:55:00
10:15 AM,62.6,35.6,37,30.24,10.0,North,3.5,-,N/A,,Clear,360,2012-11-23 15:15:00
10:35 AM,64.4,39.2,40,30.24,10.0,WNW,3.5,-,N/A,,Clear,300,2012-11-23 15:35:00
10:55 AM,64.4,41.0,42,30.24,10.0,West,3.5,-,N/A,,Clear,280,2012-11-23 15:55:00
11:15 AM,66.2,41.0,40,30.23,10.0,WNW,3.5,-,N/A,,Clear,290,2012-11-23 16:15:00
11:35 AM,68.0,39.2,35,30.22,10.0,West,6.9,-,N/A,,Clear,260,2012-11-23 16:35:00
11:55 AM,68.0,41.0,37,30.21,10.0,West,8.1,-,N/A,,Clear,270,2012-11-23 16:55:00
12:15 PM,68.0,41.0,37,30.20,10.0,NW,3.5,-,N/A,,Clear,310,2012-11-23 17:15:00
12:35 PM,68.0,41.0,37,30.19,10.0,West,4.6,-,N/A,,Clear,280,2012-11-23 17:35:00
12:55 PM,69.8,39.2,33,30.18,10.0,West,6.9,-,N/A,,Clear,280,2012-11-23 17:55:00
1:15 PM,69.8,41.0,35,30.17,10.0,West,8.1,-,N/A,,Clear,270,2012-11-23 18:15:00
1:35 PM,69.8,39.2,33,30.16,10.0,West,6.9,-,N/A,,Clear,260,2012-11-23 18:35:00
1:55 PM,69.8,41.0,35,30.15,10.0,West,6.9,-,N/A,,Clear,280,2012-11-23 18:55:00
2:15 PM,69.8,41.0,35,30.14,10.0,WNW,5.8,-,N/A,,Clear,290,2012-11-23 19:15:00
2:35 PM,69.8,41.0,35,30.13,10.0,WNW,5.8,-,N/A,,Clear,300,2012-11-23 19:35:00
2:55 PM,69.8,41.0,35,30.12,10.0,WNW,5.8,-,N/A,,Clear,300,2012-11-23 19:55:00
3:15 PM,69.8,41.0,35,30.12,10.0,West,9.2,-,N/A,,Clear,280,2012-11-23 20:15:00
3:35 PM,68.0,41.0,37,30.11,10.0,West,10.4,-,N/A,,Clear,280,2012-11-23 20:35:00
3:55 PM,68.0,42.8,40,30.11,10.0,West,6.9,-,N/A,,Clear,280,2012-11-23 20:55:00
4:15 PM,66.2,44.6,46,30.11,10.0,West,8.1,-,N/A,,Clear,280,2012-11-23 21:15:00
4:35 PM,66.2,44.6,46,30.11,10.0,West,5.8,-,N/A,,Clear,280,2012-11-23 21:35:00
4:55 PM,64.4,46.4,52,30.12,10.0,West,6.9,-,N/A,,Clear,270,2012-11-23 21:55:00
5:15 PM,62.6,48.2,59,30.12,10.0,WSW,4.6,-,N/A,,Clear,250,2012-11-23 22:15:00
5:35 PM,60.8,48.2,63,30.12,10.0,WSW,3.5,-,N/A,,Clear,240,2012-11-23 22:35:00
5:55 PM,57.2,48.2,72,30.12,10.0,Calm,Calm,-,N/A,,Clear,0,2012-11-23 22:55:00
6:15 PM,55.4,48.2,77,30.12,10.0,Calm,Calm,-,N/A,,Clear,0,2012-11-23 23:15:00
6:35 PM,53.6,48.2,82,30.12,10.0,Calm,Calm,-,N/A,,Clear,0,2012-11-23 23:35:00
6:55 PM,51.8,46.4,82,30.12,10.0,Calm,Calm,-,N/A,,Clear,0,2012-11-23 23:55:00
7:15 PM,51.8,46.4,82,30.12,10.0,Calm,Calm,-,N/A,,Clear,0,2012-11-24 00:15:00
7:35 PM,50.0,46.4,87,30.13,10.0,Calm,Calm,-,N/A,,Clear,0,2012-11-24 00:35:00
7:55 PM,48.2,46.4,93,30.14,10.0,Calm,Calm,-,N/A,,Clear,0,2012-11-24 00:55:00
8:15 PM,48.2,46.4,93,30.14,10.0,Calm,Calm,-,N/A,,Clear,0,2012-11-24 01:15:00
8:35 PM,48.2,46.4,93,30.14,10.0,Calm,Calm,-,N/A,,Clear,0,2012-11-24 01:35:00
8:55 PM,46.4,44.6,93,30.13,10.0,Calm,Calm,-,N/A,,Clear,0,2012-11-24 01:55:00
9:15 PM,46.4,44.6,93,30.13,10.0,Calm,Calm,-,N/A,,Clear,0,2012-11-24 02:15:00
9:35 PM,46.4,44.6,93,30.13,10.0,Calm,Calm,-,N/A,,Clear,0,2012-11-24 02:35:00
9:55 PM,46.4,44.6,93,30.13,10.0,Calm,Calm,-,N/A,,Clear,0,2012-11-24 02:55:00
10:15 PM,44.6,44.6,100,30.13,10.0,Calm,Calm,-,N/A,,Clear,0,2012-11-24 03:15:00
10:35 PM,44.6,42.8,93,30.12,10.0,Calm,Calm,-,N/A,,Clear,0,2012-11-24 03:35:00
10:55 PM,44.6,42.8,93,30.12,10.0,Calm,Calm,-,N/A,,Clear,0,2012-11-24 03:55:00
11:15 PM,44.6,42.8,93,30.11,10.0,Calm,Calm,-,N/A,,Clear,0,2012-11-24 04:15:00
11:35 PM,44.6,42.8,93,30.11,10.0,Calm,Calm,-,N/A,,Clear,0,2012-11-24 04:35:00
11:55 PM,44.6,42.8,93,30.10,10.0,Calm,Calm,-,N/A,,Clear,0,2012-11-24 04:55:00